Time;durP1;ratioP1;P1;durP2;ratioP2;P2;SDS_P1;SDS_P2;PMS_P1;PMS_P2;Temp;Humidity;BMP_temperature;BMP_pressure;BME280_temperature;BME280_humidity;BME280_pressure;Samples;Min_cycle;Max_cycle;Signal;HPM_P1;HPM_P2
2021/04/30 00:00:37;;;;;;;13.50;5.50;;;8.60;99.90;;;;;;5072259;28;20327;-79
2021/04/30 00:03:03;;;;;;;11.97;4.67;;;8.60;99.90;;;;;;5036305;28;20251;-78
2021/04/30 00:05:29;;;;;;;7.97;3.93;;;8.60;99.90;;;;;;5037861;28;20250;-81
2021/04/30 00:07:59;;;;;;;4.07;3.10;;;8.60;99.90;;;;;;5023005;28;20193;-79
2021/04/30 00:10:27;;;;;;;9.60;3.73;;;8.60;99.90;;;;;;5054001;28;20307;-79
2021/04/30 00:12:53;;;;;;;6.07;3.87;;;8.60;99.90;;;;;;5056432;28;20217;-79
2021/04/30 00:15:20;;;;;;;5.77;4.13;;;8.60;99.90;;;;;;5071017;28;20213;-81
2021/04/30 00:17:46;;;;;;;5.03;4.30;;;8.50;99.90;;;;;;5033127;28;20286;-78
2021/04/30 00:20:14;;;;;;;4.73;4.20;;;8.60;99.90;;;;;;5036573;28;20189;-79
2021/04/30 00:22:40;;;;;;;3.50;3.03;;;8.60;99.90;;;;;;5051298;28;20241;-78
2021/04/30 00:25:06;;;;;;;6.30;3.67;;;8.50;99.90;;;;;;5037975;28;20342;-78
2021/04/30 00:27:32;;;;;;;7.70;3.47;;;8.50;99.90;;;;;;5054885;28;20216;-81
2021/04/30 00:29:58;;;;;;;7.40;6.33;;;8.50;99.90;;;;;;5054657;28;20228;-79
2021/04/30 00:32:24;;;;;;;8.33;5.07;;;8.50;99.90;;;;;;5055942;28;20211;-79
2021/04/30 00:34:49;;;;;;;5.53;5.03;;;8.50;99.90;;;;;;5053658;28;20275;-79
2021/04/30 00:37:15;;;;;;;6.50;3.43;;;8.60;99.90;;;;;;5037701;28;20253;-78
2021/04/30 00:39:41;;;;;;;3.63;3.17;;;8.60;99.90;;;;;;5056559;28;20686;-79
2021/04/30 00:42:07;;;;;;;6.60;4.17;;;8.60;99.90;;;;;;5036076;28;20577;-79
2021/04/30 00:44:33;;;;;;;4.90;3.73;;;8.60;99.90;;;;;;5035427;28;20270;-81
2021/04/30 00:46:59;;;;;;;3.97;3.60;;;8.60;99.90;;;;;;5039008;28;20969;-79
2021/04/30 00:49:25;;;;;;;4.73;2.37;;;8.60;99.90;;;;;;5054032;28;20213;-79
2021/04/30 00:51:51;;;;;;;14.73;4.60;;;8.70;99.90;;;;;;5020611;28;20221;-79
2021/04/30 00:54:17;;;;;;;4.40;3.53;;;8.60;99.90;;;;;;5021025;28;20229;-78
2021/04/30 00:56:43;;;;;;;2.83;2.60;;;8.60;99.90;;;;;;5053776;28;20251;-80
2021/04/30 00:59:09;;;;;;;2.73;2.03;;;8.60;99.90;;;;;;5072167;28;20304;-79
2021/04/30 01:01:35;;;;;;;2.37;1.60;;;8.60;99.90;;;;;;5037192;28;20336;-81
2021/04/30 01:04:02;;;;;;;3.13;2.80;;;8.60;99.90;;;;;;5038610;28;20614;-82
2021/04/30 01:06:30;;;;;;;4.83;2.27;;;8.60;99.90;;;;;;5034890;28;20336;-80
2021/04/30 01:08:55;;;;;;;2.90;2.17;;;8.60;99.90;;;;;;5038254;28;20273;-78
2021/04/30 01:11:21;;;;;;;10.47;3.00;;;8.60;99.90;;;;;;5052957;28;20202;-78
2021/04/30 01:13:47;;;;;;;2.70;2.37;;;8.60;99.90;;;;;;5040242;28;20223;-81
2021/04/30 01:16:13;;;;;;;10.03;3.07;;;8.60;99.90;;;;;;5052771;28;20240;-80
2021/04/30 01:18:44;;;;;;;5.50;3.23;;;8.60;99.90;;;;;;5051995;28;20225;-78
2021/04/30 01:21:11;;;;;;;4.17;3.10;;;8.60;99.90;;;;;;5053447;28;20270;-79
2021/04/30 01:23:51;;;;;;;5.37;3.03;;;8.60;99.90;;;;;;5019631;28;20564;-81
2021/04/30 01:26:18;;;;;;;2.63;2.43;;;8.60;99.90;;;;;;5070364;28;20188;-78
2021/04/30 01:28:45;;;;;;;3.57;2.57;;;8.50;99.90;;;;;;5073873;28;20192;-80
2021/04/30 01:31:11;;;;;;;3.40;2.40;;;8.50;99.90;;;;;;5054008;28;20228;-81
2021/04/30 01:33:37;;;;;;;5.17;2.77;;;8.50;99.90;;;;;;5051214;28;20307;-79
2021/04/30 01:36:04;;;;;;;15.20;4.07;;;8.50;99.90;;;;;;5036240;28;20697;-80
2021/04/30 01:38:30;;;;;;;3.80;3.40;;;8.50;99.90;;;;;;5053046;28;20269;-79
2021/04/30 01:40:56;;;;;;;11.53;2.60;;;8.50;99.90;;;;;;5054003;28;20190;-79
2021/04/30 01:43:25;;;;;;;2.53;2.33;;;8.50;99.90;;;;;;5067865;28;20212;-80
2021/04/30 01:45:59;;;;;;;3.07;2.13;;;8.50;99.90;;;;;;5053601;28;20225;-79
2021/04/30 01:48:29;;;;;;;5.77;2.83;;;8.50;99.90;;;;;;5053128;28;20216;-80
2021/04/30 01:50:57;;;;;;;5.73;2.60;;;8.50;99.90;;;;;;5036575;28;20239;-80
2021/04/30 01:53:28;;;;;;;3.33;2.60;;;8.40;99.90;;;;;;5034898;28;20279;-80
2021/04/30 01:55:55;;;;;;;5.13;3.70;;;8.40;99.90;;;;;;5052132;28;20189;-78
2021/04/30 01:58:21;;;;;;;14.03;2.77;;;8.50;99.90;;;;;;5031899;28;20275;-81
2021/04/30 02:00:48;;;;;;;3.60;1.83;;;8.40;99.90;;;;;;5044832;28;20233;-83
2021/04/30 02:03:14;;;;;;;5.00;2.83;;;8.40;99.90;;;;;;5045348;28;20713;-82
2021/04/30 02:05:40;;;;;;;3.63;2.33;;;8.40;99.90;;;;;;5044921;28;20214;-80
2021/04/30 02:08:10;;;;;;;5.57;3.37;;;8.40;99.90;;;;;;5030062;28;20204;-77
2021/04/30 02:10:37;;;;;;;3.87;3.53;;;8.40;99.90;;;;;;5028655;28;20225;-82
2021/04/30 02:13:03;;;;;;;6.70;3.57;;;8.40;99.90;;;;;;5046676;28;20217;-80
2021/04/30 02:15:31;;;;;;;8.63;5.07;;;8.30;99.90;;;;;;5027091;28;20295;-82
2021/04/30 02:17:57;;;;;;;9.83;4.03;;;8.30;99.90;;;;;;5047693;28;20232;-81
2021/04/30 02:20:24;;;;;;;7.27;2.77;;;8.30;99.90;;;;;;5042912;28;20229;-81
2021/04/30 02:22:51;;;;;;;4.50;3.37;;;8.30;99.90;;;;;;5047397;28;20186;-80
2021/04/30 02:25:18;;;;;;;4.57;2.73;;;8.30;99.90;;;;;;5026980;28;20225;-79
2021/04/30 02:27:46;;;;;;;3.80;2.63;;;8.30;99.90;;;;;;5047328;28;20224;-79
2021/04/30 02:30:14;;;;;;;3.37;3.13;;;8.20;99.90;;;;;;5048618;28;20221;-79
2021/04/30 02:32:41;;;;;;;8.07;3.03;;;8.20;99.90;;;;;;5048869;28;20600;-80
2021/04/30 02:35:11;;;;;;;2.43;1.80;;;8.20;99.90;;;;;;5047587;28;20224;-82
2021/04/30 02:37:38;;;;;;;3.43;2.90;;;8.20;99.90;;;;;;5045535;28;20796;-80
2021/04/30 02:40:05;;;;;;;5.53;2.17;;;8.20;99.90;;;;;;5048325;28;20217;-80
2021/04/30 02:42:31;;;;;;;4.87;2.80;;;8.20;99.90;;;;;;5046729;28;20330;-80
2021/04/30 02:45:00;;;;;;;9.00;3.60;;;8.20;99.90;;;;;;5047216;28;21063;-80
2021/04/30 02:47:30;;;;;;;3.10;2.60;;;8.20;99.90;;;;;;5032068;28;20698;-81
2021/04/30 02:49:59;;;;;;;1.43;1.33;;;8.20;99.90;;;;;;5048609;28;20304;-80
2021/04/30 02:52:26;;;;;;;6.13;2.97;;;8.20;99.90;;;;;;5047547;28;21195;-79
2021/04/30 02:54:52;;;;;;;13.90;3.27;;;8.20;99.90;;;;;;5048855;28;20307;-78
2021/04/30 02:57:18;;;;;;;3.13;2.63;;;8.10;99.90;;;;;;5047655;28;20209;-80
2021/04/30 02:59:45;;;;;;;3.53;3.23;;;8.10;99.90;;;;;;5048365;28;20233;-79
2021/04/30 03:02:10;;;;;;;7.47;3.63;;;8.10;99.90;;;;;;5049678;28;20225;-78
2021/04/30 03:04:36;;;;;;;11.37;3.30;;;8.10;99.90;;;;;;5045288;28;20240;-80
2021/04/30 03:07:02;;;;;;;7.83;3.63;;;8.10;99.90;;;;;;5031388;28;20337;-80
2021/04/30 03:09:28;;;;;;;3.93;2.63;;;8.10;99.90;;;;;;5031100;28;20220;-80
2021/04/30 03:11:54;;;;;;;10.67;2.93;;;8.10;99.90;;;;;;5047623;28;21067;-81
2021/04/30 03:14:20;;;;;;;5.93;3.47;;;8.10;99.90;;;;;;5030498;28;20243;-81
2021/04/30 03:16:45;;;;;;;3.00;2.23;;;8.10;99.90;;;;;;5032853;28;20190;-79
2021/04/30 03:19:11;;;;;;;10.30;2.33;;;8.10;99.90;;;;;;5040944;28;20240;-79
2021/04/30 03:21:38;;;;;;;5.83;2.53;;;8.00;99.90;;;;;;5048913;28;21208;-80
2021/04/30 03:24:04;;;;;;;2.87;2.17;;;8.00;99.90;;;;;;5046751;28;20229;-81
2021/04/30 03:26:30;;;;;;;3.67;2.27;;;8.00;99.90;;;;;;5030501;28;20186;-79
2021/04/30 03:28:56;;;;;;;5.23;1.93;;;8.00;99.90;;;;;;5050198;28;20255;-78
2021/04/30 03:31:22;;;;;;;9.10;2.43;;;8.00;99.90;;;;;;5044866;28;20287;-79
2021/04/30 03:33:48;;;;;;;7.87;2.00;;;8.00;99.90;;;;;;5047380;28;20253;-77
2021/04/30 03:36:13;;;;;;;16.93;3.57;;;7.90;99.90;;;;;;5048816;28;20648;-79
2021/04/30 03:38:39;;;;;;;1.90;1.73;;;7.90;99.90;;;;;;5046488;28;20218;-78
2021/04/30 03:41:05;;;;;;;4.50;3.50;;;7.90;99.90;;;;;;5033556;28;20185;-79
2021/04/30 03:43:31;;;;;;;4.00;3.03;;;7.90;99.90;;;;;;5047590;28;20233;-80
2021/04/30 03:45:58;;;;;;;5.47;2.47;;;7.90;99.90;;;;;;5048409;28;20796;-79
2021/04/30 03:48:25;;;;;;;4.93;2.83;;;7.80;99.90;;;;;;5046858;28;20221;-79
2021/04/30 03:50:50;;;;;;;7.63;2.27;;;7.70;99.90;;;;;;5046863;28;20224;-81
2021/04/30 03:53:16;;;;;;;2.50;2.30;;;7.70;99.90;;;;;;5046643;28;20179;-79
2021/04/30 03:55:42;;;;;;;6.60;2.83;;;7.70;99.90;;;;;;5015996;28;20275;-80
2021/04/30 03:58:08;;;;;;;3.47;2.37;;;7.70;99.90;;;;;;5049083;28;20210;-81
2021/04/30 04:00:34;;;;;;;3.13;2.33;;;7.70;99.90;;;;;;5053284;28;20260;-81
2021/04/30 04:03:00;;;;;;;11.37;4.03;;;7.60;99.90;;;;;;5067321;28;21155;-80
2021/04/30 04:05:26;;;;;;;10.50;2.57;;;7.60;99.90;;;;;;5049689;28;20667;-79
2021/04/30 04:07:52;;;;;;;2.53;2.33;;;7.60;99.90;;;;;;5035070;28;20189;-78
2021/04/30 04:10:18;;;;;;;7.83;4.03;;;7.60;99.90;;;;;;5033855;28;20229;-80
2021/04/30 04:12:44;;;;;;;3.43;2.90;;;7.50;99.90;;;;;;5016275;28;20219;-79
2021/04/30 04:15:10;;;;;;;13.07;3.97;;;7.50;99.90;;;;;;5049466;28;20229;-79
2021/04/30 04:17:36;;;;;;;19.63;3.73;;;7.50;99.90;;;;;;5034450;28;20225;-78
2021/04/30 04:20:04;;;;;;;7.80;2.57;;;7.50;99.90;;;;;;5038334;28;20192;-79
2021/04/30 04:22:30;;;;;;;4.50;2.10;;;7.40;99.90;;;;;;5053209;28;20549;-80
2021/04/30 04:24:56;;;;;;;8.03;2.50;;;7.40;99.90;;;;;;5055294;28;20320;-80
2021/04/30 04:27:23;;;;;;;5.50;2.50;;;7.50;99.90;;;;;;5036430;28;20256;-78
2021/04/30 04:29:48;;;;;;;2.60;2.37;;;7.50;99.90;;;;;;5055005;28;20221;-80
2021/04/30 04:32:14;;;;;;;4.80;3.10;;;7.50;99.90;;;;;;5070636;28;20248;-78
2021/04/30 04:34:40;;;;;;;3.43;2.90;;;7.60;99.90;;;;;;5037193;28;20212;-80
2021/04/30 04:37:06;;;;;;;1.93;1.83;;;7.70;99.90;;;;;;5038326;28;20670;-81
2021/04/30 04:39:32;;;;;;;3.83;2.30;;;7.70;99.90;;;;;;5055212;28;20308;-78
2021/04/30 04:42:04;;;;;;;7.10;3.40;;;7.80;99.90;;;;;;5052175;28;20247;-80
2021/04/30 04:44:29;;;;;;;4.23;3.17;;;7.80;99.90;;;;;;5072692;28;20196;-78
2021/04/30 04:46:56;;;;;;;8.70;3.07;;;7.80;99.90;;;;;;5021967;28;20181;-81
2021/04/30 04:49:22;;;;;;;3.73;2.27;;;7.90;99.90;;;;;;5054860;28;20336;-79
2021/04/30 04:51:48;;;;;;;5.40;2.83;;;7.90;99.90;;;;;;5054454;28;20217;-82
2021/04/30 04:54:14;;;;;;;12.90;3.27;;;7.90;99.90;;;;;;5033329;28;20221;-80
2021/04/30 04:56:40;;;;;;;3.70;2.80;;;7.90;99.90;;;;;;5024662;28;20570;-81
2021/04/30 04:59:05;;;;;;;2.60;2.40;;;8.00;99.90;;;;;;5031776;28;20191;-80
2021/04/30 05:01:31;;;;;;;4.57;2.50;;;8.00;99.90;;;;;;5033168;28;20331;-80
2021/04/30 05:03:57;;;;;;;3.27;2.97;;;8.00;99.90;;;;;;5037535;28;20445;-80
2021/04/30 05:06:23;;;;;;;2.77;2.47;;;8.10;99.90;;;;;;5051663;28;20624;-77
2021/04/30 05:08:48;;;;;;;2.77;2.43;;;8.10;99.90;;;;;;5071576;28;20208;-78
2021/04/30 05:11:14;;;;;;;24.77;3.87;;;8.20;99.90;;;;;;5037413;28;20189;-80
2021/04/30 05:13:40;;;;;;;9.93;3.70;;;8.20;99.90;;;;;;5023163;28;20213;-79
2021/04/30 05:16:06;;;;;;;17.40;3.17;;;8.20;99.90;;;;;;5035401;28;20266;-78
2021/04/30 05:18:32;;;;;;;8.23;3.07;;;8.20;99.90;;;;;;5052509;28;20294;-78
2021/04/30 05:20:58;;;;;;;12.13;3.90;;;8.30;99.90;;;;;;5035731;28;20240;-79
2021/04/30 05:23:25;;;;;;;14.67;4.57;;;8.30;99.90;;;;;;5034138;28;20197;-81
2021/04/30 05:25:55;;;;;;;3.03;2.77;;;8.30;99.90;;;;;;5045428;28;20192;-81
2021/04/30 05:28:21;;;;;;;5.57;3.93;;;8.40;99.90;;;;;;5051778;28;20336;-81
2021/04/30 05:30:47;;;;;;;5.03;2.87;;;8.40;99.90;;;;;;5044750;28;20221;-80
2021/04/30 05:33:13;;;;;;;7.00;2.30;;;8.50;99.90;;;;;;5052757;28;20204;-81
2021/04/30 05:35:39;;;;;;;10.93;3.03;;;8.50;99.90;;;;;;5053877;28;20275;-81
2021/04/30 05:38:05;;;;;;;3.80;3.20;;;8.60;99.90;;;;;;5072129;28;21033;-80
2021/04/30 05:40:32;;;;;;;8.13;3.37;;;8.70;99.90;;;;;;5071977;28;20248;-80
2021/04/30 05:42:58;;;;;;;5.33;2.93;;;8.90;99.90;;;;;;5055506;28;20928;-79
2021/04/30 05:45:24;;;;;;;4.30;3.73;;;9.10;99.90;;;;;;5019109;28;20229;-81
2021/04/30 05:47:50;;;;;;;7.20;4.90;;;9.40;99.90;;;;;;5052270;28;20873;-79
2021/04/30 05:50:16;;;;;;;5.10;3.37;;;9.70;99.90;;;;;;5052902;28;20526;-81
2021/04/30 05:53:02;;;;;;;6.93;2.87;;;9.80;99.90;;;;;;5009560;28;20795;-79
2021/04/30 05:55:46;;;;;;;3.23;2.77;;;9.80;99.90;;;;;;5036730;28;20831;-81
2021/04/30 05:58:30;;;;;;;14.20;2.60;;;9.90;99.90;;;;;;5047923;28;20304;-80
2021/04/30 06:00:56;;;;;;;8.50;3.23;;;10.00;99.90;;;;;;5031311;28;20245;-81
2021/04/30 06:03:22;;;;;;;3.77;3.20;;;9.90;99.90;;;;;;5029579;28;20356;-81
2021/04/30 06:05:47;;;;;;;9.53;2.63;;;9.80;99.90;;;;;;5047444;28;21228;-79
2021/04/30 06:08:13;;;;;;;3.70;3.40;;;9.90;99.90;;;;;;5030798;28;20202;-81
2021/04/30 06:10:39;;;;;;;6.00;3.53;;;10.00;99.90;;;;;;5030580;28;20789;-78
2021/04/30 06:13:06;;;;;;;37.87;2.90;;;10.20;99.90;;;;;;5012715;28;20229;-79
2021/04/30 06:15:32;;;;;;;4.27;2.90;;;10.30;99.90;;;;;;5040442;28;20244;-81
2021/04/30 06:17:58;;;;;;;5.23;2.70;;;10.60;99.90;;;;;;5047107;28;20229;-79
2021/04/30 06:20:24;;;;;;;5.33;2.63;;;11.00;99.90;;;;;;5029038;28;20208;-79
2021/04/30 06:22:50;;;;;;;5.73;3.37;;;11.30;99.90;;;;;;5032643;28;20185;-79
2021/04/30 06:25:16;;;;;;;2.87;1.93;;;11.40;99.90;;;;;;5031110;28;20683;-79
2021/04/30 06:27:41;;;;;;;5.43;2.73;;;12.40;99.90;;;;;;5030294;28;20350;-80
2021/04/30 06:30:08;;;;;;;6.83;2.87;;;13.50;99.90;;;;;;5035385;28;20733;-80
2021/04/30 06:32:34;;;;;;;7.47;3.40;;;14.60;99.90;;;;;;5051837;28;20617;-81
2021/04/30 06:35:00;;;;;;;5.90;2.43;;;15.40;99.90;;;;;;5049444;28;20573;-79
2021/04/30 06:37:26;;;;;;;5.57;2.50;;;15.00;99.90;;;;;;5034564;28;20208;-81
2021/04/30 06:39:55;;;;;;;5.33;2.60;;;15.40;99.90;;;;;;5029621;28;20224;-83
2021/04/30 06:42:21;;;;;;;8.63;3.27;;;14.30;99.90;;;;;;5060604;28;20221;-80
2021/04/30 06:44:47;;;;;;;3.87;2.17;;;13.90;99.90;;;;;;5028815;28;20259;-82
2021/04/30 06:47:12;;;;;;;8.30;2.73;;;12.90;99.90;;;;;;5029751;28;20189;-82
2021/04/30 06:49:38;;;;;;;3.73;2.53;;;12.40;99.90;;;;;;5047730;28;20639;-79
2021/04/30 06:52:04;;;;;;;6.73;2.47;;;12.10;99.90;;;;;;5034933;28;20216;-79
2021/04/30 06:54:30;;;;;;;5.00;2.20;;;11.80;99.90;;;;;;5033206;28;20355;-81
2021/04/30 06:56:56;;;;;;;10.93;3.50;;;11.70;99.90;;;;;;5051726;28;20225;-80
2021/04/30 06:59:22;;;;;;;8.63;3.37;;;11.60;99.90;;;;;;5063621;28;20206;-82
2021/04/30 07:01:48;;;;;;;5.90;1.97;;;11.80;99.90;;;;;;5053484;28;20239;-79
2021/04/30 07:04:16;;;;;;;5.03;2.07;;;11.70;99.90;;;;;;5032972;28;20231;-79
2021/04/30 07:06:42;;;;;;;4.80;2.50;;;12.20;99.90;;;;;;5050346;28;20220;-81
2021/04/30 07:09:08;;;;;;;4.63;2.27;;;13.20;99.90;;;;;;5042351;28;20217;-79
2021/04/30 07:11:34;;;;;;;6.60;4.07;;;14.30;99.90;;;;;;5035273;28;20223;-79
2021/04/30 07:14:00;;;;;;;4.67;2.10;;;15.30;99.90;;;;;;5032599;28;20221;-80
2021/04/30 07:16:26;;;;;;;12.27;3.97;;;15.70;99.90;;;;;;5028002;28;20217;-81
2021/04/30 07:18:51;;;;;;;14.90;3.67;;;16.00;99.90;;;;;;5066592;28;20606;-79
2021/04/30 07:21:17;;;;;;;7.30;3.30;;;16.10;99.90;;;;;;5016550;28;20593;-79
2021/04/30 07:23:43;;;;;;;8.57;2.83;;;15.50;99.90;;;;;;5048980;28;20225;-80
2021/04/30 07:26:09;;;;;;;6.80;3.60;;;14.80;99.90;;;;;;5037051;28;20188;-79
2021/04/30 07:28:34;;;;;;;5.40;2.50;;;14.20;99.90;;;;;;5070760;28;20697;-79
2021/04/30 07:31:02;;;;;;;3.60;2.53;;;13.80;99.90;;;;;;5051219;28;20756;-79
2021/04/30 07:33:28;;;;;;;4.27;2.47;;;13.50;99.90;;;;;;5035484;28;20600;-78
2021/04/30 07:35:54;;;;;;;11.37;4.33;;;13.40;99.90;;;;;;5050663;28;20311;-79
2021/04/30 07:38:20;;;;;;;5.90;2.80;;;13.20;99.90;;;;;;5042132;28;20189;-82
2021/04/30 07:40:46;;;;;;;5.33;3.47;;;12.90;99.90;;;;;;5067401;28;20250;-79
2021/04/30 07:43:13;;;;;;;10.40;2.73;;;12.80;99.90;;;;;;5050021;28;20243;-85
2021/04/30 07:45:40;;;;;;;10.20;3.00;;;12.90;99.90;;;;;;5035025;28;20213;-86
2021/04/30 07:48:07;;;;;;;10.80;3.47;;;13.00;99.90;;;;;;5035618;28;20221;-83
2021/04/30 07:50:33;;;;;;;3.07;2.73;;;13.00;99.90;;;;;;5037227;28;20220;-84
2021/04/30 07:52:59;;;;;;;7.10;2.97;;;13.30;99.90;;;;;;5056734;28;20192;-84
2021/04/30 07:55:25;;;;;;;5.80;2.73;;;13.80;99.90;;;;;;5058482;28;21185;-82
2021/04/30 07:57:51;;;;;;;8.40;3.20;;;13.80;99.90;;;;;;5040531;28;20248;-85
2021/04/30 08:00:17;;;;;;;8.63;3.07;;;13.70;99.90;;;;;;5039427;28;20313;-83
2021/04/30 08:02:43;;;;;;;6.50;2.90;;;13.70;99.90;;;;;;5038131;28;20610;-85
2021/04/30 08:05:09;;;;;;;8.57;3.57;;;13.80;99.90;;;;;;5024700;28;20642;-83
2021/04/30 08:07:35;;;;;;;13.70;3.87;;;13.60;99.90;;;;;;5023729;28;20260;-83
2021/04/30 08:10:01;;;;;;;6.77;3.33;;;13.60;99.90;;;;;;5055408;28;20753;-84
2021/04/30 08:12:27;;;;;;;11.00;3.23;;;13.50;99.90;;;;;;5040447;28;20224;-83
2021/04/30 08:14:53;;;;;;;4.13;3.40;;;13.70;99.90;;;;;;5053364;28;20232;-83
2021/04/30 08:17:18;;;;;;;5.73;3.63;;;14.40;99.90;;;;;;5023929;28;20317;-82
2021/04/30 08:19:44;;;;;;;7.30;3.70;;;14.70;99.90;;;;;;5041315;28;20268;-83
2021/04/30 08:22:10;;;;;;;6.13;2.90;;;15.10;99.90;;;;;;5056330;28;20216;-84
2021/04/30 08:24:36;;;;;;;8.57;3.33;;;15.40;99.90;;;;;;5071723;28;20608;-82
2021/04/30 08:27:03;;;;;;;5.50;3.53;;;16.50;99.90;;;;;;5022148;28;20223;-84
2021/04/30 08:29:30;;;;;;;9.30;3.43;;;18.60;99.90;;;;;;5036899;28;20271;-84
2021/04/30 08:31:56;;;;;;;7.57;4.57;;;20.30;99.90;;;;;;5023595;28;20188;-84
2021/04/30 08:34:22;;;;;;;5.23;3.70;;;21.20;99.90;;;;;;5038633;28;20314;-85
2021/04/30 08:36:48;;;;;;;6.40;4.23;;;21.20;99.90;;;;;;5040509;28;20209;-84
2021/04/30 08:39:14;;;;;;;8.70;4.07;;;20.80;99.90;;;;;;5072711;28;20232;-84
2021/04/30 08:41:41;;;;;;;7.20;4.83;;;20.20;99.90;;;;;;5038450;28;20220;-84
2021/04/30 08:44:08;;;;;;;9.07;4.20;;;20.10;99.90;;;;;;5058131;28;20204;-84
2021/04/30 08:46:35;;;;;;;9.00;3.50;;;19.50;99.90;;;;;;5047285;28;20810;-87
2021/04/30 08:49:06;;;;;;;7.77;4.33;;;17.90;99.90;;;;;;5054755;28;20225;-85
2021/04/30 08:51:34;;;;;;;9.13;4.33;;;17.10;99.90;;;;;;5056061;28;20619;-85
2021/04/30 08:54:02;;;;;;;11.50;5.03;;;16.40;99.90;;;;;;5052463;28;20239;-84
2021/04/30 08:56:29;;;;;;;7.90;4.13;;;14.30;99.90;;;;;;5054040;28;20186;-85
2021/04/30 08:58:55;;;;;;;6.20;4.33;;;13.50;99.90;;;;;;5039680;28;20296;-84
2021/04/30 09:01:21;;;;;;;7.20;4.83;;;13.30;99.90;;;;;;5071997;28;20351;-86
2021/04/30 09:03:47;;;;;;;6.83;4.23;;;13.90;99.90;;;;;;5053768;28;20235;-84
2021/04/30 09:06:18;;;;;;;7.03;4.30;;;14.00;99.90;;;;;;5019145;28;20224;-83
2021/04/30 09:08:49;;;;;;;8.30;4.30;;;13.30;99.90;;;;;;5037949;28;20221;-83
2021/04/30 09:11:38;;;;;;;7.30;4.40;;;13.10;99.90;;;;;;5059395;28;20193;-83
2021/04/30 09:14:20;;;;;;;4.83;3.90;;;13.10;99.90;;;;;;5039845;28;20209;-82
2021/04/30 09:17:15;;;;;;;6.83;4.03;;;13.90;99.90;;;;;;5073094;28;20216;-83
2021/04/30 09:19:47;;;;;;;10.97;5.87;;;14.30;99.90;;;;;;5055282;28;20213;-82
2021/04/30 09:22:17;;;;;;;8.33;4.13;;;16.00;99.90;;;;;;5072333;28;20227;-83
2021/04/30 09:24:48;;;;;;;6.67;4.77;;;17.20;99.90;;;;;;5070255;28;20232;-84
2021/04/30 09:27:33;;;;;;;9.53;4.63;;;18.70;99.90;;;;;;5053148;28;20331;-84
2021/04/30 09:30:26;;;;;;;5.93;4.17;;;19.60;99.90;;;;;;5052997;28;20216;-83
2021/04/30 09:33:12;;;;;;;8.47;5.10;;;19.40;99.90;;;;;;5053276;28;20273;-83
2021/04/30 09:36:01;;;;;;;8.97;4.90;;;18.70;99.90;;;;;;5064867;28;20241;-83
2021/04/30 09:38:35;;;;;;;7.73;4.73;;;18.70;99.90;;;;;;5055243;28;20242;-85
2021/04/30 09:41:00;;;;;;;9.97;5.27;;;19.90;99.90;;;;;;5065260;28;20304;-83
2021/04/30 09:43:27;;;;;;;9.63;4.83;;;19.30;99.90;;;;;;5071650;28;20216;-85
2021/04/30 09:45:53;;;;;;;10.67;5.43;;;17.80;99.90;;;;;;5037377;28;20220;-84
2021/04/30 09:48:18;;;;;;;7.27;4.43;;;17.20;99.90;;;;;;5020118;28;20248;-82
2021/04/30 09:50:45;;;;;;;9.87;5.43;;;16.50;99.90;;;;;;5029699;28;20220;-86
2021/04/30 09:53:13;;;;;;;9.23;4.67;;;15.50;99.90;;;;;;5057459;28;20193;-85
2021/04/30 09:55:43;;;;;;;9.87;4.80;;;15.20;99.90;;;;;;5070241;28;20236;-83
2021/04/30 09:58:17;;;;;;;7.47;4.73;;;14.70;99.90;;;;;;5052275;28;20580;-85
2021/04/30 10:00:56;;;;;;;7.73;4.70;;;14.40;99.90;;;;;;5071147;28;20299;-84
2021/04/30 10:03:25;;;;;;;7.60;4.67;;;14.30;99.90;;;;;;5062717;28;20228;-83
2021/04/30 10:06:10;;;;;;;9.10;4.93;;;13.80;99.90;;;;;;5070525;28;20248;-82
2021/04/30 10:08:36;;;;;;;7.27;4.00;;;13.40;99.90;;;;;;5052447;28;20221;-81
2021/04/30 10:11:03;;;;;;;9.23;4.30;;;13.20;99.90;;;;;;5054598;28;20794;-84
2021/04/30 10:13:30;;;;;;;7.00;3.90;;;13.10;99.90;;;;;;5048408;28;20213;-82
2021/04/30 10:15:55;;;;;;;7.30;3.80;;;12.90;99.90;;;;;;5052898;28;20212;-83
2021/04/30 10:18:21;;;;;;;11.00;4.30;;;12.20;99.90;;;;;;5036509;28;20228;-82
2021/04/30 10:20:48;;;;;;;7.37;4.73;;;12.40;99.90;;;;;;5036812;28;20213;-82
2021/04/30 10:23:20;;;;;;;9.50;4.50;;;12.70;99.90;;;;;;5037871;28;20230;-82
2021/04/30 10:25:50;;;;;;;7.53;4.37;;;12.40;99.90;;;;;;5055225;28;20199;-81
2021/04/30 10:28:29;;;;;;;4.27;3.33;;;12.10;99.90;;;;;;5052281;28;20216;-82
2021/04/30 10:30:59;;;;;;;9.47;4.57;;;12.50;99.90;;;;;;5054290;28;20208;-81
2021/04/30 10:33:43;;;;;;;12.17;5.00;;;12.60;99.90;;;;;;5052397;28;20217;-82
2021/04/30 10:36:20;;;;;;;4.57;3.53;;;12.80;99.90;;;;;;5069332;28;20212;-85
2021/04/30 10:38:51;;;;;;;8.60;3.60;;;12.80;99.90;;;;;;5053759;28;20219;-82
2021/04/30 10:41:31;;;;;;;5.30;4.00;;;12.80;99.90;;;;;;5070919;28;20239;-85
2021/04/30 10:44:23;;;;;;;10.10;3.83;;;12.70;99.90;;;;;;5054798;28;20200;-83
2021/04/30 10:47:15;;;;;;;8.10;4.17;;;12.80;99.90;;;;;;5050351;28;20228;-82
2021/04/30 10:49:43;;;;;;;5.10;3.70;;;12.60;99.90;;;;;;5052673;28;20221;-82
2021/04/30 10:52:30;;;;;;;6.70;3.17;;;12.60;99.90;;;;;;5053471;28;20244;-86
2021/04/30 10:55:02;;;;;;;8.17;3.63;;;12.50;99.90;;;;;;5051473;28;20569;-83
2021/04/30 10:57:28;;;;;;;6.73;3.47;;;12.40;99.90;;;;;;5051892;28;20217;-82
2021/04/30 10:59:54;;;;;;;6.27;3.83;;;11.80;99.90;;;;;;5068700;28;20209;-81
2021/04/30 11:02:30;;;;;;;9.80;3.43;;;11.70;99.90;;;;;;5036558;28;20320;-82
2021/04/30 11:05:12;;;;;;;6.30;4.13;;;11.70;99.90;;;;;;5072310;28;20192;-82
2021/04/30 11:07:51;;;;;;;9.83;3.87;;;11.80;99.90;;;;;;5056267;28;20794;-81
2021/04/30 11:10:23;;;;;;;8.93;4.90;;;11.70;99.90;;;;;;5051792;28;20219;-81
2021/04/30 11:13:19;;;;;;;8.50;3.63;;;11.40;99.90;;;;;;5062229;28;20250;-82
2021/04/30 11:15:47;;;;;;;7.70;3.73;;;11.40;99.90;;;;;;5051418;28;20593;-83
2021/04/30 11:18:23;;;;;;;7.47;3.77;;;11.40;99.90;;;;;;5073019;28;20220;-83
2021/04/30 11:21:10;;;;;;;7.03;4.17;;;11.40;99.90;;;;;;5034109;28;20689;-81
2021/04/30 11:23:35;;;;;;;7.43;4.33;;;11.30;99.90;;;;;;5068105;28;20286;-82
2021/04/30 11:26:25;;;;;;;9.63;4.30;;;11.20;99.90;;;;;;5072818;28;20977;-85
2021/04/30 11:28:53;;;;;;;4.37;3.53;;;11.10;99.90;;;;;;5055215;28;20338;-82
2021/04/30 11:31:32;;;;;;;8.57;4.87;;;11.00;99.90;;;;;;5057808;28;20333;-82
2021/04/30 11:34:12;;;;;;;7.20;5.07;;;11.00;99.90;;;;;;5069893;28;20239;-82
2021/04/30 11:36:51;;;;;;;11.43;4.70;;;11.00;99.90;;;;;;5070990;28;20407;-84
2021/04/30 11:39:20;;;;;;;10.30;5.57;;;10.80;99.90;;;;;;5050387;28;20213;-81
2021/04/30 11:41:47;;;;;;;8.60;5.57;;;10.80;99.90;;;;;;5071428;28;20243;-81
2021/04/30 11:44:15;;;;;;;5.27;4.67;;;10.80;99.90;;;;;;5053439;28;20188;-84
2021/04/30 11:46:41;;;;;;;9.27;5.90;;;10.90;99.90;;;;;;5057313;28;20188;-82
2021/04/30 11:49:07;;;;;;;8.57;5.20;;;10.90;99.90;;;;;;5038430;28;20217;-82
2021/04/30 11:51:47;;;;;;;6.97;4.30;;;10.90;99.90;;;;;;5054055;28;20585;-82
2021/04/30 11:54:25;;;;;;;4.90;3.87;;;10.50;99.90;;;;;;5035444;28;20243;-83
2021/04/30 11:57:21;;;;;;;6.07;3.33;;;10.00;99.90;;;;;;5052216;28;20336;-83
2021/04/30 11:59:46;;;;;;;5.50;4.70;;;9.30;99.90;;;;;;5027098;28;20221;-86
2021/04/30 12:02:12;;;;;;;9.40;5.00;;;9.20;99.90;;;;;;5025735;28;20653;-85
2021/04/30 12:04:54;;;;;;;4.63;3.30;;;9.10;99.90;;;;;;5057510;28;20296;-85
2021/04/30 12:07:23;;;;;;;8.40;4.93;;;9.20;99.90;;;;;;5057102;28;20224;-84
2021/04/30 12:09:50;;;;;;;5.67;3.83;;;9.30;99.90;;;;;;5042193;28;20224;-85
2021/04/30 12:12:24;;;;;;;6.70;3.80;;;9.30;99.90;;;;;;5055993;28;20217;-83
2021/04/30 12:15:03;;;;;;;8.60;3.27;;;9.30;99.90;;;;;;5051045;28;20225;-83
2021/04/30 12:17:31;;;;;;;7.70;4.20;;;9.40;99.90;;;;;;5057774;28;20177;-82
2021/04/30 12:20:19;;;;;;;7.20;3.97;;;9.40;99.90;;;;;;5057223;28;20189;-83
2021/04/30 12:23:03;;;;;;;7.23;4.10;;;9.30;99.90;;;;;;5054874;28;20221;-84
2021/04/30 12:25:32;;;;;;;7.07;3.90;;;9.10;99.90;;;;;;5055074;28;20228;-86
2021/04/30 12:28:21;;;;;;;4.07;3.53;;;8.80;99.90;;;;;;5055743;28;20229;-85
2021/04/30 12:31:07;;;;;;;4.17;3.40;;;8.70;99.90;;;;;;5056670;28;20220;-88
2021/04/30 12:33:34;;;;;;;8.53;4.33;;;8.80;99.90;;;;;;5055744;28;20673;-87
2021/04/30 12:36:12;;;;;;;5.40;3.83;;;9.00;99.90;;;;;;5056511;28;20696;-87
2021/04/30 12:38:39;;;;;;;4.67;3.57;;;9.00;99.90;;;;;;5054805;28;20243;-89
2021/04/30 12:41:10;;;;;;;8.03;5.33;;;9.20;99.90;;;;;;5055929;28;21162;-88
2021/04/30 12:43:38;;;;;;;6.60;5.17;;;9.20;99.90;;;;;;5073567;28;20231;-86
2021/04/30 12:46:16;;;;;;;6.93;4.53;;;9.20;99.90;;;;;;5046821;28;20301;-88
2021/04/30 12:48:45;;;;;;;7.80;5.00;;;9.10;99.90;;;;;;5072789;28;20231;-88
2021/04/30 12:51:13;;;;;;;6.17;4.70;;;9.10;99.90;;;;;;5056717;28;20213;-86
2021/04/30 12:53:45;;;;;;;6.60;5.07;;;9.20;99.90;;;;;;5055744;28;20225;-85
2021/04/30 12:56:32;;;;;;;7.30;4.87;;;9.20;99.90;;;;;;5058823;28;20182;-88
2021/04/30 12:59:08;;;;;;;7.80;6.03;;;9.30;99.90;;;;;;5057664;28;20402;-85